createdAt,value
2023-04-05T00:02:18.694Z,1.70
2023-04-05T00:04:50.604Z,1.50
2023-04-05T00:07:19.137Z,1.48
2023-04-05T00:09:46.500Z,1.70
2023-04-05T00:12:13.631Z,1.52
2023-04-05T00:14:40.781Z,1.48
2023-04-05T00:17:09.491Z,1.75
2023-04-05T00:19:39.205Z,1.70
2023-04-05T00:22:06.284Z,1.85
2023-04-05T00:24:33.984Z,1.70
2023-04-05T00:27:01.272Z,1.67
2023-04-05T00:29:28.548Z,1.70
2023-04-05T00:31:56.502Z,1.35
2023-04-05T00:34:23.614Z,1.98
2023-04-05T00:36:50.876Z,1.60
2023-04-05T00:39:17.836Z,1.85
2023-04-05T00:41:46.897Z,1.83
2023-04-05T00:44:15.525Z,2.17
2023-04-05T00:46:42.536Z,1.55
2023-04-05T00:49:10.252Z,1.85
2023-04-05T00:51:38.076Z,1.40
2023-04-05T00:54:06.245Z,1.90
2023-04-05T00:56:33.268Z,1.75
2023-04-05T00:59:00.669Z,1.73
2023-04-05T01:01:29.001Z,1.70
2023-04-05T01:04:03.464Z,2.00
2023-04-05T01:07:04.643Z,1.98
2023-04-05T01:09:59.788Z,1.50
2023-04-05T01:16:57.975Z,1.70
2023-04-05T01:19:29.848Z,1.90
2023-04-05T01:22:26.461Z,1.40
2023-04-05T01:25:47.036Z,1.73
2023-04-05T01:29:12.193Z,1.67
2023-04-05T01:31:48.605Z,1.60
2023-04-05T01:34:49.969Z,1.75
2023-04-05T01:37:22.858Z,1.75
2023-04-05T01:39:50.923Z,1.80
2023-04-05T01:42:25.352Z,1.83
2023-04-05T01:44:57.414Z,1.70
2023-04-05T01:47:24.795Z,1.98
2023-04-05T01:49:51.798Z,1.42
2023-04-05T01:52:18.875Z,1.75
2023-04-05T01:54:45.905Z,1.95
2023-04-05T01:57:12.848Z,1.60
2023-04-05T01:59:39.771Z,1.77
2023-04-05T02:02:06.748Z,2.17
2023-04-05T02:04:33.832Z,1.70
2023-04-05T02:07:00.970Z,1.60
2023-04-05T02:09:28.014Z,1.90
2023-04-05T02:11:55.262Z,1.70
2023-04-05T02:14:22.384Z,1.70
2023-04-05T02:16:49.344Z,1.73
2023-04-05T02:19:22.894Z,1.95
2023-04-05T02:21:53.578Z,1.83
2023-04-05T02:24:21.687Z,1.50
2023-04-05T02:26:48.679Z,2.08
2023-04-05T02:29:15.658Z,1.73
2023-04-05T02:31:42.609Z,2.03
2023-04-05T02:34:11.525Z,1.90
2023-04-05T02:36:38.490Z,1.77
2023-04-05T02:39:05.466Z,1.40
2023-04-05T02:41:32.474Z,1.90
2023-04-05T02:44:00.018Z,1.38
2023-04-05T02:48:57.979Z,1.50
2023-04-05T02:51:27.908Z,1.38
2023-04-05T02:53:54.972Z,1.58
2023-04-05T02:56:22.108Z,1.60
2023-04-05T02:58:49.526Z,1.55
2023-04-05T03:01:22.603Z,1.25
2023-04-05T03:03:50.182Z,1.58
2023-04-05T03:06:17.432Z,1.70
2023-04-05T03:08:49.208Z,1.63
2023-04-05T03:11:20.905Z,1.50
2023-04-05T03:13:51.717Z,1.55
2023-04-05T03:19:07.894Z,1.50
2023-04-05T03:21:37.892Z,1.38
2023-04-05T03:24:13.076Z,1.50
2023-04-05T03:26:45.540Z,1.88
2023-04-05T03:29:13.648Z,1.50
2023-04-05T03:31:40.995Z,1.90
2023-04-05T03:34:09.581Z,1.63
2023-04-05T03:36:45.930Z,1.40
2023-04-05T03:39:28.220Z,1.50
2023-04-05T03:41:56.717Z,1.58
2023-04-05T03:44:23.679Z,1.88
2023-04-05T03:46:50.883Z,1.95
2023-04-05T03:49:19.808Z,1.50
2023-04-05T03:51:47.032Z,1.50
2023-04-05T03:54:14.548Z,1.50
2023-04-05T03:56:42.994Z,1.45
2023-04-05T03:59:14.566Z,1.40
2023-04-05T04:01:42.225Z,1.85
2023-04-05T04:04:09.168Z,1.92
2023-04-05T04:06:37.195Z,1.50
2023-04-05T04:09:05.761Z,1.30
2023-04-05T04:11:32.880Z,1.20
2023-04-05T04:14:03.111Z,1.52
2023-04-05T04:17:08.460Z,1.63
2023-04-05T04:19:50.970Z,1.35
2023-04-05T04:22:45.815Z,1.63
2023-04-05T04:25:39.058Z,1.38
2023-04-05T04:28:27.962Z,1.58
2023-04-05T04:31:17.001Z,1.20
2023-04-05T04:34:10.074Z,1.33
2023-04-05T04:37:01.433Z,1.38
2023-04-05T04:39:35.534Z,1.30
2023-04-05T04:42:23.798Z,1.45
2023-04-05T04:45:18.565Z,1.15
2023-04-05T04:47:57.638Z,1.38
2023-04-05T04:50:46.526Z,1.55
2023-04-05T04:53:17.254Z,1.50
2023-04-05T04:55:44.500Z,1.75
2023-04-05T04:58:13.234Z,1.40
2023-04-05T05:00:44.336Z,1.67
2023-04-05T05:03:12.215Z,1.58
2023-04-05T05:05:43.833Z,1.65
2023-04-05T05:08:10.933Z,1.85
2023-04-05T05:10:39.920Z,1.52
2023-04-05T05:13:07.036Z,1.98
2023-04-05T05:15:34.081Z,1.70
2023-04-05T05:18:01.249Z,1.40
2023-04-05T05:20:28.563Z,2.30
2023-04-05T05:22:56.192Z,1.50
2023-04-05T05:25:23.117Z,1.38
2023-04-05T05:27:53.363Z,1.70
2023-04-05T05:30:23.173Z,1.80
2023-04-05T05:32:50.621Z,1.67
2023-04-05T05:35:17.696Z,1.83
2023-04-05T05:37:44.759Z,1.60
2023-04-05T05:40:13.255Z,1.90
2023-04-05T05:42:40.548Z,1.70
2023-04-05T05:45:08.710Z,1.60
2023-04-05T05:47:36.133Z,1.67
2023-04-05T05:50:03.825Z,1.73
2023-04-05T05:52:31.089Z,1.50
2023-04-05T05:54:58.099Z,1.77
2023-04-05T05:57:25.016Z,1.70
2023-04-05T05:59:51.977Z,1.60
2023-04-05T06:02:19.314Z,1.77
2023-04-05T06:04:46.284Z,1.92
2023-04-05T06:07:13.706Z,1.50
2023-04-05T06:09:40.702Z,1.70
2023-04-05T06:12:07.768Z,1.45
2023-04-05T06:14:34.723Z,1.80
2023-04-05T06:17:01.673Z,1.90
2023-04-05T06:19:28.629Z,1.27
2023-04-05T06:21:55.588Z,1.70
2023-04-05T06:24:22.581Z,1.52
2023-04-05T06:26:51.851Z,1.50
2023-04-05T06:29:18.865Z,1.50
2023-04-05T06:31:47.861Z,1.40
2023-04-05T06:34:14.925Z,1.33
2023-04-05T06:36:42.674Z,1.50
2023-04-05T06:39:09.706Z,1.70
2023-04-05T06:41:36.757Z,1.50
2023-04-05T06:44:03.691Z,1.60
2023-04-05T06:46:30.727Z,2.03
2023-04-05T06:48:58.866Z,1.55
2023-04-05T06:51:26.639Z,1.80
2023-04-05T06:53:53.593Z,1.90
2023-04-05T06:56:20.528Z,1.85
2023-04-05T06:58:47.837Z,2.03
2023-04-05T07:01:14.875Z,1.77
2023-04-05T07:03:41.817Z,1.63
2023-04-05T07:06:09.701Z,2.00
2023-04-05T07:08:36.632Z,2.08
2023-04-05T07:11:03.742Z,2.08
2023-04-05T07:13:30.814Z,1.75
2023-04-05T07:16:03.255Z,2.00
2023-04-05T07:18:30.924Z,1.77
2023-04-05T07:21:03.925Z,1.83
2023-04-05T07:23:31.343Z,1.65
2023-04-05T07:26:05.824Z,2.10
2023-04-05T07:28:35.363Z,1.38
2023-04-05T07:31:03.946Z,1.80
2023-04-05T07:33:31.129Z,1.70
2023-04-05T07:35:58.384Z,1.92
2023-04-05T07:38:27.510Z,1.90
2023-04-05T07:40:54.475Z,1.35
2023-04-05T07:43:21.637Z,1.42
2023-04-05T07:45:48.717Z,1.92
2023-04-05T07:48:15.842Z,1.67
2023-04-05T07:50:47.510Z,1.65
2023-04-05T07:53:14.995Z,1.77
2023-04-05T07:55:43.021Z,1.95
2023-04-05T07:58:10.935Z,1.60
2023-04-05T08:00:38.611Z,1.65
2023-04-05T08:03:06.901Z,1.67
2023-04-05T08:05:33.872Z,1.70
2023-04-05T08:08:00.951Z,2.00
2023-04-05T08:10:27.945Z,1.90
2023-04-05T08:12:55.042Z,1.92
2023-04-05T08:15:22.018Z,2.00
2023-04-05T08:17:49.145Z,2.05
2023-04-05T08:20:16.159Z,1.98
2023-04-05T08:22:43.247Z,1.92
2023-04-05T08:25:11.825Z,1.95
2023-04-05T08:27:38.746Z,2.20
2023-04-05T08:30:06.788Z,2.53
2023-04-05T08:32:35.328Z,2.38
2023-04-05T08:35:02.477Z,1.98
2023-04-05T08:37:29.487Z,2.33
2023-04-05T08:39:56.431Z,2.20
2023-04-05T08:42:47.572Z,2.28
2023-04-05T08:45:17.977Z,2.20
2023-04-05T08:47:46.457Z,2.00
2023-04-05T08:50:14.250Z,1.95
2023-04-05T08:52:48.594Z,1.92
2023-04-05T08:55:16.773Z,2.10
2023-04-05T08:57:49.831Z,1.92
2023-04-05T09:00:18.069Z,2.08
2023-04-05T09:02:51.065Z,2.17
2023-04-05T09:05:21.193Z,2.08
2023-04-05T09:07:49.094Z,2.03
2023-04-05T09:10:18.686Z,1.60
2023-04-05T09:12:45.847Z,1.83
2023-04-05T09:15:14.083Z,1.88
2023-04-05T09:17:43.387Z,2.03
2023-04-05T09:20:10.379Z,2.08
2023-04-05T09:22:47.228Z,2.33
2023-04-05T09:25:43.761Z,2.15
2023-04-05T09:28:10.900Z,2.17
2023-04-05T09:30:38.409Z,1.83
2023-04-05T09:33:10.385Z,2.30
2023-04-05T09:35:37.959Z,2.30
2023-04-05T09:38:05.440Z,1.98
2023-04-05T09:40:48.535Z,2.25
2023-04-05T09:46:34.072Z,1.73
2023-04-05T09:49:02.339Z,2.03
2023-04-05T09:51:37.772Z,2.17
2023-04-05T09:54:11.226Z,2.63
2023-04-05T09:56:41.936Z,2.70
2023-04-05T09:59:12.343Z,2.50
2023-04-05T10:01:44.425Z,2.05
2023-04-05T10:04:11.546Z,2.40
2023-04-05T10:06:43.026Z,2.67
2023-04-05T10:09:12.013Z,2.20
2023-04-05T10:11:39.438Z,2.45
2023-04-05T10:14:08.379Z,2.80
2023-04-05T10:17:16.170Z,2.25
2023-04-05T10:20:11.580Z,2.50
2023-04-05T10:23:12.384Z,2.47
2023-04-05T10:26:04.623Z,2.22
2023-04-05T10:28:37.448Z,2.67
2023-04-05T10:31:14.196Z,2.70
2023-04-05T10:33:47.471Z,2.50
2023-04-05T10:36:45.410Z,2.35
2023-04-05T10:39:45.780Z,2.15
2023-04-05T10:42:28.154Z,2.47
2023-04-05T10:45:06.780Z,2.67
2023-04-05T10:47:42.653Z,2.15
2023-04-05T10:50:20.178Z,2.67
2023-04-05T10:52:48.148Z,2.15
2023-04-05T10:55:16.924Z,2.95
2023-04-05T10:57:46.189Z,2.67
2023-04-05T11:00:16.322Z,3.00
2023-04-05T11:02:44.787Z,2.80
2023-04-05T11:05:34.512Z,2.55
2023-04-05T11:08:11.082Z,2.45
2023-04-05T11:10:39.488Z,2.47
2023-04-05T11:13:08.814Z,2.70
2023-04-05T11:15:36.536Z,3.05
2023-04-05T11:18:18.065Z,2.75
2023-04-05T11:21:06.408Z,2.83
2023-04-05T11:23:53.358Z,2.10
2023-04-05T11:26:20.412Z,3.00
2023-04-05T11:28:47.380Z,2.45
2023-04-05T11:31:18.329Z,2.55
2023-04-05T11:33:52.180Z,2.28
2023-04-05T11:36:36.815Z,2.28
2023-04-05T11:39:27.691Z,2.60
2023-04-05T11:42:16.644Z,2.30
2023-04-05T11:44:49.399Z,2.35
2023-04-05T11:47:23.283Z,1.98
2023-04-05T11:49:51.731Z,2.60
2023-04-05T11:52:21.686Z,2.38
2023-04-05T11:54:49.903Z,2.17
2023-04-05T11:57:24.057Z,2.40
2023-04-05T11:59:53.126Z,2.58
2023-04-05T12:02:21.516Z,2.45
2023-04-05T12:04:58.345Z,2.03
2023-04-05T12:07:29.461Z,2.40
2023-04-05T12:10:08.770Z,2.33
2023-04-05T12:12:40.505Z,2.00
2023-04-05T12:15:11.604Z,2.00
2023-04-05T12:17:42.774Z,2.15
2023-04-05T12:20:12.681Z,2.33
2023-04-05T12:22:42.540Z,2.30
2023-04-05T12:25:10.961Z,1.90
2023-04-05T12:27:39.077Z,2.03
2023-04-05T12:30:16.993Z,2.33
2023-04-05T12:32:51.416Z,2.20
2023-04-05T12:35:31.788Z,2.35
2023-04-05T12:38:00.894Z,2.70
2023-04-05T12:40:30.115Z,2.13
2023-04-05T12:43:09.380Z,1.95
2023-04-05T12:45:40.505Z,1.85
2023-04-05T12:48:11.936Z,2.30
2023-04-05T12:50:44.878Z,2.00
2023-04-05T12:53:23.358Z,2.20
2023-04-05T12:55:55.523Z,2.20
2023-04-05T12:58:42.886Z,1.95
2023-04-05T13:01:10.636Z,1.92
2023-04-05T13:03:37.851Z,2.10
2023-04-05T13:06:04.797Z,2.25
2023-04-05T13:08:31.743Z,2.17
2023-04-05T13:10:58.666Z,2.45
2023-04-05T13:13:25.730Z,2.00
2023-04-05T13:15:52.881Z,2.00
2023-04-05T13:18:20.519Z,2.15
2023-04-05T13:20:47.539Z,1.95
2023-04-05T13:23:14.496Z,2.03
2023-04-05T13:25:45.223Z,1.95
2023-04-05T13:28:12.265Z,2.05
2023-04-05T13:30:39.282Z,2.42
2023-04-05T13:33:06.699Z,2.35
2023-04-05T13:35:34.035Z,2.03
2023-04-05T13:38:04.341Z,2.00
2023-04-05T13:40:32.541Z,1.90
2023-04-05T13:42:59.780Z,1.83
2023-04-05T13:45:27.975Z,2.28
2023-04-05T13:47:55.639Z,2.10
2023-04-05T13:50:22.733Z,2.45
2023-04-05T13:52:49.712Z,2.28
2023-04-05T13:55:16.777Z,2.47
2023-04-05T13:57:43.779Z,2.22
2023-04-05T14:00:11.634Z,2.00
2023-04-05T14:02:39.154Z,1.85
2023-04-05T14:05:08.483Z,1.85
2023-04-05T14:07:35.950Z,2.38
2023-04-05T14:10:03.219Z,1.85
2023-04-05T14:12:31.471Z,2.05
2023-04-05T14:15:00.096Z,1.98
2023-04-05T14:17:27.149Z,2.05
2023-04-05T14:19:54.122Z,2.20
2023-04-05T14:22:21.551Z,2.13
2023-04-05T14:24:48.657Z,2.17
2023-04-05T14:27:15.778Z,1.75
2023-04-05T14:29:44.079Z,2.40
2023-04-05T14:32:11.087Z,2.45
2023-04-05T14:34:38.198Z,2.38
2023-04-05T14:37:06.589Z,2.33
2023-04-05T14:39:34.115Z,2.30
2023-04-05T14:42:01.406Z,1.92
2023-04-05T14:44:28.434Z,2.00
2023-04-05T14:46:55.419Z,1.95
2023-04-05T14:49:22.414Z,2.40
2023-04-05T14:51:49.475Z,2.42
2023-04-05T14:54:16.858Z,2.50
2023-04-05T14:56:44.048Z,2.10
2023-04-05T14:59:11.107Z,2.08
2023-04-05T15:01:38.234Z,2.45
2023-04-05T15:04:07.461Z,2.13
2023-04-05T15:06:35.724Z,2.33
2023-04-05T15:09:02.654Z,2.08
2023-04-05T15:11:29.697Z,1.77
2023-04-05T15:13:56.624Z,2.20
2023-04-05T15:16:25.049Z,2.30
2023-04-05T15:18:52.171Z,2.60
2023-04-05T15:21:19.991Z,1.92
2023-04-05T15:23:46.960Z,2.15
2023-04-05T15:26:13.898Z,2.35
2023-04-05T15:28:41.104Z,2.13
2023-04-05T15:31:08.183Z,2.00
2023-04-05T15:33:35.229Z,1.85
2023-04-05T15:36:02.268Z,2.10
2023-04-05T15:38:29.222Z,2.03
2023-04-05T15:40:57.790Z,2.10
2023-04-05T15:43:24.772Z,1.92
2023-04-05T15:45:51.773Z,2.50
2023-04-05T15:48:18.736Z,1.83
2023-04-05T15:50:45.986Z,2.35
2023-04-05T15:53:13.190Z,2.10
2023-04-05T15:55:40.130Z,1.88
2023-04-05T15:58:07.406Z,1.73
2023-04-05T16:00:34.565Z,2.00
2023-04-05T16:03:02.190Z,1.98
2023-04-05T16:05:29.279Z,1.80
2023-04-05T16:07:56.295Z,1.80
2023-04-05T16:10:23.361Z,1.85
2023-04-05T16:12:52.435Z,1.80
2023-04-05T16:15:19.545Z,2.20
2023-04-05T16:17:46.765Z,2.28
2023-04-05T16:20:13.863Z,2.15
2023-04-05T16:22:41.426Z,2.20
2023-04-05T16:25:08.432Z,2.10
2023-04-05T16:27:36.940Z,1.95
2023-04-05T16:30:04.271Z,1.83
2023-04-05T16:32:31.310Z,1.95
2023-04-05T16:34:58.355Z,2.10
2023-04-05T16:37:25.580Z,2.30
2023-04-05T16:39:52.610Z,2.42
2023-04-05T16:42:19.635Z,2.08
2023-04-05T16:44:46.595Z,1.98
2023-04-05T16:47:13.540Z,2.08
2023-04-05T16:49:40.531Z,2.30
2023-04-05T16:52:07.461Z,2.13
2023-04-05T16:54:34.403Z,2.30
2023-04-05T16:57:02.150Z,1.88
2023-04-05T16:59:29.239Z,2.22
2023-04-05T17:01:56.190Z,1.95
2023-04-05T17:04:23.212Z,1.92
2023-04-05T17:06:51.473Z,1.63
2023-04-05T17:09:19.432Z,1.88
2023-04-05T17:11:46.809Z,2.08
2023-04-05T17:14:13.808Z,2.10
2023-04-05T17:16:40.904Z,2.20
2023-04-05T17:19:07.868Z,2.40
2023-04-05T17:21:35.511Z,2.08
2023-04-05T17:24:03.062Z,2.35
2023-04-05T17:26:30.258Z,2.33
2023-04-05T17:28:57.281Z,2.20
2023-04-05T17:31:24.809Z,2.40
2023-04-05T17:33:51.792Z,2.03
2023-04-05T17:36:18.843Z,2.30
2023-04-05T17:38:46.067Z,1.85
2023-04-05T17:41:13.050Z,2.05
2023-04-05T17:43:40.320Z,2.03
2023-04-05T17:46:09.269Z,2.20
2023-04-05T17:48:36.413Z,1.90
2023-04-05T17:51:09.367Z,1.80
2023-04-05T17:53:36.412Z,2.35
2023-04-05T17:56:03.673Z,2.10
2023-04-05T17:58:32.223Z,2.05
2023-04-05T18:00:59.662Z,2.08
2023-04-05T18:03:27.525Z,1.95
2023-04-05T18:05:55.829Z,1.92
2023-04-05T18:08:23.808Z,1.60
2023-04-05T18:10:57.653Z,1.83
2023-04-05T18:13:26.302Z,1.88
2023-04-05T18:16:00.045Z,1.80
2023-04-05T18:18:28.465Z,1.90
2023-04-05T18:20:56.416Z,1.92
2023-04-05T18:23:24.861Z,2.13
2023-04-05T18:25:53.628Z,2.47
2023-04-05T18:28:23.248Z,1.90
2023-04-05T18:30:51.650Z,2.13
2023-04-05T18:33:18.872Z,1.95
2023-04-05T18:35:50.435Z,1.77
2023-04-05T18:38:17.720Z,1.83
2023-04-05T18:40:44.778Z,1.85
2023-04-05T18:43:11.847Z,2.20
2023-04-05T18:45:39.440Z,2.08
2023-04-05T18:48:06.540Z,2.20
2023-04-05T18:50:34.409Z,1.95
2023-04-05T18:53:01.655Z,1.88
2023-04-05T18:55:28.592Z,2.13
2023-04-05T18:57:55.551Z,2.33
2023-04-05T19:00:22.496Z,2.20
2023-04-05T19:02:49.451Z,2.10
2023-04-05T19:05:16.503Z,2.78
2023-04-05T19:07:43.779Z,2.67
2023-04-05T19:10:11.784Z,2.70
2023-04-05T19:12:38.748Z,2.30
2023-04-05T19:15:07.120Z,2.55
2023-04-05T19:17:34.181Z,2.85
2023-04-05T19:20:01.149Z,2.85
2023-04-05T19:22:28.164Z,2.90
2023-04-05T19:24:55.331Z,3.00
2023-04-05T19:27:22.283Z,2.63
2023-04-05T19:29:49.350Z,2.72
2023-04-05T19:32:16.293Z,2.58
2023-04-05T19:34:43.266Z,2.80
2023-04-05T19:37:10.330Z,3.35
2023-04-05T19:39:37.365Z,2.40
2023-04-05T19:42:05.909Z,2.83
2023-04-05T19:44:57.911Z,2.88
2023-04-05T19:47:26.293Z,3.38
2023-04-05T19:49:56.964Z,3.70
2023-04-05T19:52:48.124Z,3.63
2023-04-05T19:55:41.568Z,3.60
2023-04-05T19:58:10.363Z,4.30
2023-04-05T20:00:56.544Z,4.35
2023-04-05T20:03:32.791Z,4.07
2023-04-05T20:06:07.921Z,4.22
2023-04-05T20:08:37.579Z,4.00
2023-04-05T20:11:16.008Z,3.97
2023-04-05T20:13:55.091Z,4.03
2023-04-05T20:16:34.119Z,4.22
2023-04-05T20:19:11.347Z,3.78
2023-04-05T20:21:38.784Z,4.35
2023-04-05T20:24:09.683Z,4.63
2023-04-05T20:26:36.676Z,4.60
2023-04-05T20:29:08.388Z,4.50
2023-04-05T20:31:40.078Z,4.82
2023-04-05T20:34:21.797Z,4.70
2023-04-05T20:36:52.143Z,5.28
2023-04-05T20:39:19.578Z,4.53
2023-04-05T20:41:47.137Z,4.75
2023-04-05T20:44:27.478Z,4.22
2023-04-05T20:46:57.114Z,4.17
2023-04-05T20:49:25.909Z,4.10
2023-04-05T20:51:55.721Z,3.17
2023-04-05T20:54:23.021Z,3.15
2023-04-05T20:56:49.949Z,3.63
2023-04-05T20:59:17.041Z,3.17
2023-04-05T21:01:46.960Z,3.08
2023-04-05T21:04:14.484Z,3.10
2023-04-05T21:06:42.252Z,2.97
2023-04-05T21:09:09.843Z,2.42
2023-04-05T21:11:37.308Z,2.03
2023-04-05T21:14:04.502Z,3.03
2023-04-05T21:16:31.683Z,2.55
2023-04-05T21:18:58.774Z,2.42
2023-04-05T21:21:26.143Z,2.25
2023-04-05T21:23:53.125Z,2.60
2023-04-05T21:26:20.112Z,2.78
2023-04-05T21:28:47.036Z,2.33
2023-04-05T21:31:13.984Z,2.42
2023-04-05T21:33:41.564Z,2.17
2023-04-05T21:36:08.701Z,2.38
2023-04-05T21:38:35.843Z,2.55
2023-04-05T21:41:02.823Z,2.88
2023-04-05T21:43:29.820Z,2.72
2023-04-05T21:45:56.861Z,2.90
2023-04-05T21:48:24.702Z,2.60
2023-04-05T21:50:51.896Z,2.80
2023-04-05T21:53:18.934Z,2.67
2023-04-05T21:55:46.172Z,2.45
2023-04-05T21:58:13.207Z,2.33
2023-04-05T22:00:40.212Z,2.28
2023-04-05T22:03:07.322Z,2.47
2023-04-05T22:05:38.349Z,2.20
2023-04-05T22:08:07.097Z,2.65
2023-04-05T22:10:35.288Z,2.33
2023-04-05T22:13:02.307Z,2.00
2023-04-05T22:15:29.318Z,2.63
2023-04-05T22:17:56.380Z,2.20
2023-04-05T22:20:23.422Z,2.60
2023-04-05T22:22:50.358Z,2.60
2023-04-05T22:25:17.366Z,2.50
2023-04-05T22:27:44.523Z,2.58
2023-04-05T22:30:12.118Z,2.80
2023-04-05T22:32:39.210Z,2.30
2023-04-05T22:35:06.888Z,2.50
2023-04-05T22:37:36.427Z,2.05
2023-04-05T22:40:06.042Z,2.20
2023-04-05T22:42:32.993Z,2.40
2023-04-05T22:45:00.078Z,3.05
2023-04-05T22:47:27.155Z,2.72
2023-04-05T22:49:54.232Z,2.90
2023-04-05T22:52:21.401Z,2.90
2023-04-05T22:54:48.443Z,2.80
2023-04-05T22:57:15.704Z,2.92
2023-04-05T22:59:43.008Z,3.00
2023-04-05T23:02:12.138Z,2.63
2023-04-05T23:04:39.159Z,2.63
2023-04-05T23:07:06.165Z,3.08
2023-04-05T23:09:33.264Z,2.60
2023-04-05T23:12:00.258Z,2.70
2023-04-05T23:14:27.363Z,3.03
2023-04-05T23:16:54.318Z,3.05
2023-04-05T23:19:21.461Z,2.67
2023-04-05T23:21:49.018Z,3.17
2023-04-05T23:24:16.067Z,2.83
2023-04-05T23:26:43.004Z,3.00
2023-04-05T23:29:10.110Z,3.33
2023-04-05T23:31:37.225Z,3.20
2023-04-05T23:34:04.232Z,2.90
2023-04-05T23:36:31.201Z,3.25
2023-04-05T23:39:00.001Z,2.95
2023-04-05T23:41:27.156Z,2.83
2023-04-05T23:43:54.126Z,2.83
2023-04-05T23:46:22.038Z,3.10
2023-04-05T23:48:49.170Z,3.13
2023-04-05T23:51:16.191Z,2.88
2023-04-05T23:53:43.189Z,3.13
2023-04-05T23:56:10.285Z,2.92
2023-04-05T23:58:37.270Z,2.80
